Home > Products > Valid Products > TAF

000
FTUS44 KOUN 250740 AAA
TAFPNC
TAF AMD
KPNC 250740Z 2508/2606 17013G20KT P6SM BKN040
      TEMPO 2508/2510 4SM -TSRA BKN007CB
     FM251000 15010KT P6SM FEW007 BKN019
     FM251600 16012KT P6SM BKN035=



000
FTUS44 KOUN 250041 AAA
TAFPNC
TAF AMD
KPNC 250041Z 2501/2524 13012KT P6SM FEW040 BKN250
     FM250700 15010KT P6SM BKN019
     FM251600 16012KT P6SM BKN035=



000
FTUS44 KOUN 242328
TAFPNC
TAF
KPNC 242328Z 2500/2524 13012KT P6SM FEW040 BKN250
     FM250100 13010KT P6SM VCTS SCT040CB BKN250
     FM250400 14010KT P6SM SCT035 BKN250
     FM250700 15010KT P6SM BKN019
     FM251600 16012KT P6SM BKN035=



000
FTUS44 KOUN 242328
TAFHBR
TAF
KHBR 242328Z 2500/2524 17016G22KT P6SM SCT040
     FM250900 17014G21KT P6SM BKN015
     FM251300 18013KT P6SM FEW015
     FM251500 19015G22KT P6SM SCT035=



000
FTUS44 KOUN 242328
TAFOKC
TAF
KOKC 242328Z 2500/2524 16012KT P6SM FEW035 BKN060
     FM250700 17012KT P6SM BKN019
     FM251600 17014G21KT P6SM BKN035=



000
FTUS44 KOUN 242328
TAFOUN
TAF
KOUN 242328Z 2500/2524 16012KT P6SM FEW035 BKN060
     FM250700 17012KT P6SM BKN019
     FM251600 17014G21KT P6SM BKN035=



000
FTUS44 KOUN 242328
TAFSPS
TAF
KSPS 242328Z 2500/2524 16012KT P6SM BKN070
     FM251100 17012KT P6SM BKN019
     FM251600 17014G22KT P6SM BKN035=



000
FTUS44 KOUN 242328
TAFGAG
TAF
KGAG 242328Z 2500/2524 17017G24KT P6SM FEW050 BKN250
     FM250200 17016G23KT P6SM VCTS SCT050CB BKN250
     FM250400 17015G22KT P6SM FEW035 BKN250
     FM250900 18014G21KT P6SM BKN015
     FM251200 19012KT P6SM FEW015
     FM251900 21015G22KT P6SM SKC=



000
FTUS44 KOUN 242328
TAFLAW
TAF
KLAW 242328Z 2500/2524 15010KT P6SM FEW022 BKN050
     FM251100 17010KT P6SM BKN019
     FM251600 17012G20KT P6SM BKN035=



000
FTUS44 KOUN 242328
TAFWWR
TAF
KWWR 242328Z 2500/2524 17015G22KT P6SM FEW050 BKN250
     FM250200 17016G23KT P6SM VCTS SCT050CB BKN250
     FM250500 17015G22KT P6SM FEW035 BKN250
     FM250900 18014G21KT P6SM BKN015
     FM251300 19012KT P6SM FEW015
     FM251900 21015G22KT P6SM SKC
      AMD NOT SKED=



000
FTUS44 KOUN 241720
TAFWWR
TAF
KWWR 241720Z 2418/2518 19017G26KT P6SM BKN020
     FM242200 18017G30KT P6SM SCT035
      TEMPO 2422/2502 5SM -TSRA BR BKN009CB
     FM250200 16016G25KT P6SM BKN030
     FM251000 19013G19KT P6SM SCT250
      AMD NOT SKED=



000
FTUS44 KOUN 241720
TAFOKC
TAF
KOKC 241720Z 2418/2518 17016G24KT P6SM FEW025 SCT040
     FM250300 16012G19KT P6SM OVC015
      TEMPO 2503/2507 5SM -TSRA BR BKN009CB OVC014
     FM250700 18013G20KT P6SM OVC019=



000
FTUS44 KOUN 241720
TAFOUN
TAF
KOUN 241720Z 2418/2518 17016G25KT P6SM FEW025 SCT040
     FM250300 16012G19KT P6SM OVC015
      TEMPO 2503/2507 5SM -TSRA BR BKN009CB OVC014
     FM250700 18013G20KT P6SM OVC019=



000
FTUS44 KOUN 241720
TAFGAG
TAF
KGAG 241720Z 2418/2518 20017G27KT P6SM FEW020 SCT030
     FM242200 18017G30KT P6SM SCT035
      TEMPO 2423/2503 5SM -TSRA BR BKN009CB
     FM250300 16016G25KT P6SM BKN030
     FM251000 19013G19KT P6SM SCT250=



000
FTUS44 KOUN 241720
TAFPNC
TAF
KPNC 241720Z 2418/2518 17012G17KT P6SM SCT025 OVC030
     FM242100 17015G24KT P6SM OVC030
      TEMPO 2421/2501 5SM -TSRA BR OVC019CB
     FM250100 16012G20KT 5SM -TSRA BR OVC015CB
     FM250600 18009G15KT P6SM OVC019
      TEMPO 2506/2509 5SM -TSRA BR OVC015CB=



000
FTUS44 KOUN 241720
TAFLAW
TAF
KLAW 241720Z 2418/2518 17015G25KT P6SM BKN024
     FM250300 15014KT P6SM OVC015
     FM251100 17012G22KT P6SM BKN019=



000
FTUS44 KOUN 241720
TAFSPS
TAF
KSPS 241720Z 2418/2518 17015G24KT P6SM SCT024 BKN030
     FM250200 15014KT P6SM OVC015
     FM251100 18012G22KT P6SM BKN019=



000
FTUS44 KOUN 241720
TAFHBR
TAF
KHBR 241720Z 2418/2518 17016G26KT P6SM SCT015 BKN024
     FM250000 16015G22KT P6SM OVC025
      TEMPO 2501/2505 5SM -TSRA BR OVC015CB
     FM250500 17014G20KT P6SM OVC020
     FM251200 19013G17KT P6SM SCT035=



000
FTUS44 KOUN 241346 AAA
TAFHBR
TAF AMD
KHBR 241346Z 2414/2512 18015G23KT P6SM BKN008
     FM241600 19016G25KT P6SM BKN015 BKN030
     FM241800 17016G26KT P6SM BKN030 PROB30 2423/2503 2SM +TSRA BR
      OVC015CB
     FM250300 18015G22KT P6SM OVC020=



000
FTUS44 KOUN 241341 AAA
TAFOKC
TAF AMD
KOKC 241341Z 2414/2512 20013G20KT P6SM SCT150 SCT250
     FM241600 17015G23KT P6SM SCT030
     FM241800 17016G24KT P6SM BKN030 PROB30 2501/2505 3SM TSRA BR
      OVC015CB=



000
FTUS44 KOUN 240025 AAA
TAFWWR
TAF AMD
KWWR 240025Z 2400/2424 18014KT P6SM BKN060 BKN150
      TEMPO 2400/2403 3SM -TSRA BKN030CB OVC100
     FM240600 18015KT P6SM BKN010
     FM241500 19016G25KT P6SM FEW250
      AMD NOT SKED=



000
FTUS44 KOUN 240023 AAA
TAFGAG
TAF AMD
KGAG 240023Z 2400/2424 17012KT P6SM BKN060 BKN150
      TEMPO 2400/2402 3SM -TSRA BKN030CB OVC100
     FM240600 18015KT P6SM BKN010
     FM241400 20018G27KT P6SM FEW250=



000
FTUS44 KOUN 231253 AAA
TAFLAW
TAF AMD
KLAW 231253Z 2313/2412 15008KT P6SM SCT004 BKN050
      TEMPO 2313/2314 BKN005
     FM231700 16011G19KT P6SM BKN025
     FM232100 17012G18KT P6SM BKN035
     FM240000 16015G21KT P6SM BKN035 PROB30 2400/2406 TSRA BKN025CB=



000
FTUS44 KOUN 231148 CCA
TAFOKC
TAF COR
KOKC 231148Z 2312/2412 15012KT 6SM -RA VCTS BKN050CB OVC100
     FM231400 16014G22KT P6SM BKN020 BKN120 OVC200
     FM232100 17014G21KT P6SM BKN035 BKN250
     FM240000 16011KT P6SM BKN050 PROB30 2404/2409 TSRA OVC015CB=



000
FTUS44 KOUN 231148 AAA
TAFOUN
TAF AMD
KOUN 231148Z 2312/2412 12010KT 6SM -RA VCTS BKN050CB OVC100
     FM231400 16014G22KT P6SM BKN020 BKN120 OVC200
     FM232100 17014G21KT P6SM BKN035 BKN250
     FM240000 16011KT P6SM BKN050 PROB30 2404/2409 TSRA OVC015CB=



000
FTUS44 KOUN 231147
TAFGAG
TAF
KGAG 231147Z 2312/2412 19016KT P6SM SCT250
      TEMPO 2314/2317 BKN020
     FM231700 20013G21KT P6SM SCT035
     FM240000 18012KT P6SM BKN035 PROB30 2401/2404 TSRA BKN025CB=



000
FTUS44 KOUN 231147
TAFOUN
TAF
KOUN 231147Z 2312/2412 12010KT 6SM -TSRA BKN050CB OVC100
     FM231400 16014G22KT P6SM BKN020 BKN120 OVC200
     FM232100 17014G21KT P6SM BKN035 BKN250
     FM240000 16011KT P6SM BKN050 PROB30 2404/2409 TSRA OVC015CB=



000
FTUS44 KOUN 231147
TAFWWR
TAF
KWWR 231147Z 2312/2412 20014G19KT P6SM SCT250
      TEMPO 2314/2317 BKN020
     FM231700 20013G21KT P6SM SCT035
     FM240000 18012KT P6SM BKN035 PROB30 2401/2404 TSRA BKN025CB=



000
FTUS44 KOUN 231147
TAFOKC
TAF
KOKC 231147Z 2312/2412 15012KT 6SM -TSRA BKN050CB OVC100
     FM231400 16014G22KT P6SM BKN020 BKN120 OVC200
     FM232100 17014G21KT P6SM BKN035 BKN250
     FM240000 16011KT P6SM BKN050 PROB30 2404/2409 TSRA OVC015CB=



000
FTUS44 KOUN 231147
TAFPNC
TAF
KPNC 231147Z 2312/2412 15011KT P6SM VCSH OVC200
     FM231600 15011G18KT P6SM BKN035 OVC200
     FM240000 14011KT P6SM SCT035 SCT250
     FM240400 17015KT P6SM BKN030 BKN100 PROB30 2404/2409 TSRA
      BKN025CB=



000
FTUS44 KOUN 231147
TAFLAW
TAF
KLAW 231147Z 2312/2412 15008KT P6SM BKN060
     FM231700 16011G19KT P6SM BKN025
     FM232100 17012G18KT P6SM BKN035
     FM240000 16015G21KT P6SM BKN035 PROB30 2400/2406 TSRA BKN025CB=



000
FTUS44 KOUN 231147
TAFHBR
TAF
KHBR 231147Z 2312/2412 18009KT P6SM FEW070
     FM231700 19018G26KT P6SM BKN025
     FM232100 18015G23KT P6SM BKN035
     FM240000 16015G21KT P6SM BKN035 PROB30 2400/2406 TSRA BKN025CB=



000
FTUS44 KOUN 231147
TAFSPS
TAF
KSPS 231147Z 2312/2412 17005KT P6SM VCTS BKN050CB OVC100
      TEMPO 2312/2314 2SM TSRA BKN040CB
     FM231700 17014G22KT P6SM BKN035
     FM240000 16013KT P6SM BKN040 PROB30 2400/2406 TSRA OVC015CB=



000
FTUS44 KOUN 230820 AAA
TAFSPS
TAF AMD
KSPS 230820Z 2308/2406 12013KT 1SM TSRA BKN015CB OVC100
     FM230900 13010KT P6SM SCT025 OVC040
      TEMPO 2309/2311 4SM -TSRA BKN020CB
     FM231100 16013KT P6SM OVC015
     FM231800 16015G24KT P6SM BKN028 PROB30 2400/2406 TSRA OVC015CB=



000
FTUS44 KOUN 230236 AAA
TAFSPS
TAF AMD
KSPS 230236Z 2303/2324 13013KT P6SM BKN035 OVC150
      TEMPO 2303/2307 VRB40KT 2SM TSRA BR OVC015CB
     FM230700 15013KT P6SM OVC015
      TEMPO 2311/2315 5SM BR OVC007
     FM231800 16016G24KT P6SM BKN025=



000
FTUS44 KOUN 230233 AAA
TAFHBR
TAF AMD
KHBR 230233Z 2303/2324 15016KT P6SM BKN035 OVC100
      TEMPO 2303/2307 VRB40KT 2SM TSRA BR OVC015CB
     FM230700 16014KT P6SM OVC015
      TEMPO 2310/2314 5SM BR OVC007
     FM231700 18018G26KT P6SM BKN025=



000
FTUS44 KOUN 222338
TAFLAW
TAF
KLAW 222338Z 2300/2324 14013KT P6SM BKN035 OVC200
      TEMPO 2303/2307 3SM TSRA BR OVC015CB
     FM230700 15012KT P6SM OVC015
      TEMPO 2310/2314 5SM BR OVC007
     FM231800 16015G22KT P6SM BKN025=



000
FTUS44 KOUN 222338
TAFOUN
TAF
KOUN 222338Z 2300/2324 14012KT P6SM BKN045 BKN250
     FM231000 15013KT P6SM OVC015
     FM231700 17015G25KT P6SM BKN028=



000
FTUS44 KOUN 222338
TAFSPS
TAF
KSPS 222338Z 2300/2324 14013KT P6SM BKN035 OVC200
      TEMPO 2304/2307 3SM TSRA BR OVC015CB
     FM230700 14013KT P6SM OVC015
      TEMPO 2311/2315 5SM BR OVC007
     FM231800 16016G24KT P6SM BKN025=



000
FTUS44 KOUN 222338
TAFGAG
TAF
KGAG 222338Z 2300/2324 14015KT P6SM SCT035 OVC200
      TEMPO 2303/2306 5SM -TSRA BR OVC015CB
     FM230600 16018KT P6SM OVC015
      TEMPO 2309/2313 OVC007
     FM231700 19015G25KT P6SM BKN028 PROB30 2320/2324 TSRA OVC015CB=



000
FTUS44 KOUN 222338
TAFWWR
TAF
KWWR 222338Z 2300/2324 14015KT P6SM BKN035 OVC200
      TEMPO 2303/2306 5SM -TSRA BR OVC015CB
     FM230600 16018KT P6SM OVC015
      TEMPO 2309/2313 OVC007
     FM231700 19015G25KT P6SM BKN028 PROB30 2320/2324 TSRA OVC015CB
      AMD NOT SKED=



000
FTUS44 KOUN 222338
TAFHBR
TAF
KHBR 222338Z 2300/2324 15015KT P6SM BKN035 OVC100
      TEMPO 2302/2306 3SM TSRA BR OVC015CB
     FM230600 16014KT P6SM OVC015
      TEMPO 2310/2314 5SM BR OVC007
     FM231700 18018G26KT P6SM BKN025=



000
FTUS44 KOUN 222338
TAFPNC
TAF
KPNC 222338Z 2300/2324 15019G25KT P6SM SKC
     FM230700 14013KT P6SM BKN015
     FM231700 17016G24KT P6SM BKN028=



000
FTUS44 KOUN 222338
TAFOKC
TAF
KOKC 222338Z 2300/2324 14013KT P6SM BKN045 BKN250
     FM231000 15013KT P6SM OVC015
     FM231700 17015G25KT P6SM BKN028=



000
FTUS44 KOUN 221720
TAFGAG
TAF
KGAG 221720Z 2218/2318 16013G18KT P6SM OVC008
     FM222000 15012G18KT P6SM SCT025 BKN035 BKN070
     FM230600 15010KT P6SM OVC025
     FM230900 17017KT P6SM OVC004 PROB30 2309/2312 P6SM -SHRA OVC004
     FM231200 17012KT P6SM OVC004
     FM231500 18015KT 4SM BR OVC007=



000
FTUS44 KOUN 221720
TAFOUN
TAF
KOUN 221720Z 2218/2318 16014G19KT P6SM SCT028 BKN045 BKN250
     FM230000 15009KT P6SM FEW060 BKN250
     FM231100 15009KT P6SM OVC015=



000
FTUS44 KOUN 221720
TAFOKC
TAF
KOKC 221720Z 2218/2318 16012G18KT P6SM SCT028 BKN045 BKN250
     FM230000 15009KT P6SM FEW060 BKN250
     FM231100 15009KT P6SM OVC015=



000
FTUS44 KOUN 221720
TAFPNC
TAF
KPNC 221720Z 2218/2318 15011G18KT P6SM SCT028 BKN040 BKN250
     FM230000 14011KT P6SM SCT040 BKN250
     FM231100 15012G18KT P6SM BKN025
     FM231200 15013KT P6SM OVC015 PROB30 2312/2315 P6SM -TSRA
      BKN015CB=



000
FTUS44 KOUN 221720
TAFHBR
TAF
KHBR 221720Z 2218/2318 16015G22KT P6SM OVC010
     FM222100 15016G24KT P6SM SCT012 BKN025
     FM230300 17015KT P6SM OVC011 PROB30 2306/2312 P6SM -SHRA OVC015
     FM231200 17013KT P6SM OVC004
     FM231500 18016KT 2SM BR OVC007=



000
FTUS44 KOUN 221720
TAFLAW
TAF
KLAW 221720Z 2218/2318 15011G18KT P6SM BKN015 OVC080
     FM222300 12011KT P6SM SCT018 BKN035 BKN100
     FM230900 14009KT P6SM OVC007 PROB30 2309/2312 P6SM TS BKN007CB
     FM231500 16012KT 4SM BR OVC007=



000
FTUS44 KOUN 221720
TAFSPS
TAF
KSPS 221720Z 2218/2318 14012G18KT P6SM BKN035
     FM230000 13011KT P6SM BKN035
     FM230300 12011KT P6SM OVC030 PROB30 2303/2307 3SM TSRA BR
      OVC010CB
     FM230900 15010KT P6SM OVC007 PROB30 2309/2312 P6SM TS BKN007CB
     FM231200 15010KT 6SM BR OVC004
     FM231500 16013KT 4SM BR OVC007=



000
FTUS44 KOUN 221720
TAFWWR
TAF
KWWR 221720Z 2218/2318 16013G18KT P6SM OVC009
     FM222100 15012G18KT P6SM SCT010 BKN035 BKN070
     FM230600 15010KT P6SM OVC025
     FM230900 17017KT P6SM OVC004 PROB30 2309/2312 P6SM -SHRA OVC004
     FM231200 17012KT P6SM OVC004
     FM231500 18015KT 4SM BR OVC007
      AMD NOT SKED=



000
FTUS44 KOUN 221121
TAFOKC
TAF
KOKC 221121Z 2212/2312 15006KT P6SM BKN050 BKN250
     FM221800 16012G18KT P6SM BKN045 BKN250
     FM230000 15009KT P6SM FEW060 BKN250
     FM231100 15009KT P6SM OVC015=



000
FTUS44 KOUN 221121
TAFLAW
TAF
KLAW 221121Z 2212/2312 12007KT P6SM BKN020 BKN250
     FM221800 15011G18KT P6SM BKN035
     FM230000 12011KT P6SM BKN035 BKN100 BKN250 PROB30 2302/2306 3SM
      TSRA BR OVC010CB=



000
FTUS44 KOUN 221121
TAFWWR
TAF
KWWR 221121Z 2212/2312 15017G23KT P6SM VCSH OVC009
     FM221700 16013G18KT P6SM BKN030 BKN250
     FM222100 15012G18KT P6SM BKN035 BKN070 BKN250 PROB30 2300/2306
      3SM TSRA OVC010CB
     FM230600 15010KT P6SM OVC025=



000
FTUS44 KOUN 221121
TAFPNC
TAF
KPNC 221121Z 2212/2312 13010KT P6SM SCT050 BKN250
     FM221800 15011G18KT P6SM BKN040 BKN250
     FM230000 14011KT P6SM SCT040 BKN250
     FM231100 15012G18KT P6SM BKN025=



000
FTUS44 KOUN 221121
TAFHBR
TAF
KHBR 221121Z 2212/2312 16010KT P6SM VCSH SCT025 BKN045 BKN250
      TEMPO 2212/2215 OVC010
     FM221800 16015G22KT P6SM BKN025 BKN250
     FM222100 15016G24KT P6SM BKN025 PROB30 2221/2302 3SM TSRA BR
      OVC010CB
     FM231000 16014G22KT P6SM OVC009=



000
FTUS44 KOUN 221121
TAFSPS
TAF
KSPS 221121Z 2212/2312 11006KT P6SM BKN025 BKN070 BKN250
     FM221700 14012G18KT P6SM BKN035
     FM230000 13011KT P6SM BKN035
     FM230300 12011KT P6SM OVC030 PROB30 2303/2307 3SM TSRA BR
      OVC010CB=



000
FTUS44 KOUN 221121
TAFOUN
TAF
KOUN 221121Z 2212/2312 12005KT P6SM BKN050 BKN250
     FM221800 16012G18KT P6SM BKN045 BKN250
     FM230000 15009KT P6SM FEW060 BKN250
     FM231100 15009KT P6SM OVC015=



000
FTUS44 KOUN 221121
TAFGAG
TAF
KGAG 221121Z 2212/2312 17014G23KT P6SM VCSH OVC009
     FM221700 16013G18KT P6SM BKN030 BKN250
     FM222100 15012G18KT P6SM BKN035 BKN070 BKN250 PROB30 2300/2306
      3SM TSRA OVC010CB
     FM230600 15010KT P6SM OVC025=



    US Dept of Commerce
    National Oceanic and Atmospheric Administration
    National Weather Service
    1325 East West Highway
    Silver Spring, MD 20910
    Page Author: NWS Internet Services Team
Disclaimer
Information Quality
Credits
Glossary
Privacy Policy
Freedom of Information Act (FOIA)
About Us
Career Opportunities